createdAt,value
2022-08-20T00:01:42.075Z,22.00
2022-08-20T00:04:09.373Z,21.83
2022-08-20T00:06:36.748Z,21.79
2022-08-20T00:09:04.673Z,21.77
2022-08-20T00:11:33.645Z,21.85
2022-08-20T00:14:04.864Z,21.86
2022-08-20T00:16:34.981Z,21.77
2022-08-20T00:19:27.158Z,21.77
2022-08-20T00:21:58.051Z,21.82
2022-08-20T00:24:26.511Z,21.82
2022-08-20T00:26:53.709Z,21.82
2022-08-20T00:29:24.754Z,21.73
2022-08-20T00:31:51.920Z,21.77
2022-08-20T00:34:19.236Z,21.67
2022-08-20T00:36:47.021Z,21.73
2022-08-20T00:39:15.989Z,21.75
2022-08-20T00:42:02.279Z,21.80
2022-08-20T00:48:56.048Z,21.76
2022-08-20T00:51:30.689Z,21.76
2022-08-20T00:54:11.028Z,21.80
2022-08-20T00:56:40.868Z,21.76
2022-08-20T00:59:12.737Z,21.77
2022-08-20T01:01:55.490Z,21.77
2022-08-20T01:04:27.897Z,21.76
2022-08-20T01:06:55.800Z,21.77
2022-08-20T01:09:49.784Z,21.89
2022-08-20T01:12:12.475Z,22.03
2022-08-20T01:14:47.520Z,22.03
2022-08-20T01:17:19.013Z,22.00
2022-08-20T01:20:01.014Z,22.18
2022-08-20T01:26:19.387Z,22.13
2022-08-20T01:29:09.054Z,22.13
2022-08-20T01:31:38.618Z,22.10
2022-08-20T01:34:08.996Z,22.04
2022-08-20T01:36:46.290Z,22.08
2022-08-20T01:39:21.321Z,22.04
2022-08-20T01:41:57.075Z,21.92
2022-08-20T01:44:29.729Z,22.01
2022-08-20T01:47:10.480Z,22.28
2022-08-20T01:49:44.002Z,22.17
2022-08-20T01:52:19.952Z,22.43
2022-08-20T01:54:47.162Z,22.24
2022-08-20T01:57:17.089Z,22.31
2022-08-20T01:59:45.216Z,22.33
2022-08-20T02:02:12.967Z,22.28
2022-08-20T02:04:41.027Z,22.17
2022-08-20T02:07:14.907Z,21.94
2022-08-20T02:09:42.277Z,22.18
2022-08-20T02:12:10.814Z,22.17
2022-08-20T02:14:46.932Z,22.07
2022-08-20T02:17:15.643Z,22.14
2022-08-20T02:20:11.091Z,22.01
2022-08-20T02:22:50.335Z,22.07
2022-08-20T02:25:19.925Z,21.97
2022-08-20T02:27:52.087Z,21.98
2022-08-20T02:30:27.778Z,21.97
2022-08-20T02:32:59.458Z,22.03
2022-08-20T02:35:27.417Z,22.06
2022-08-20T02:37:55.293Z,22.07
2022-08-20T02:40:27.178Z,21.94
2022-08-20T02:42:59.142Z,22.03
2022-08-20T02:45:26.475Z,22.01
2022-08-20T02:47:54.217Z,22.07
2022-08-20T02:50:22.509Z,22.04
2022-08-20T02:52:51.676Z,22.13
2022-08-20T02:55:27.937Z,22.16
2022-08-20T02:57:59.092Z,22.03
2022-08-20T03:00:32.202Z,22.03
2022-08-20T03:03:08.146Z,22.01
2022-08-20T03:05:36.551Z,22.10
2022-08-20T03:08:08.466Z,21.94
2022-08-20T03:10:36.656Z,21.92
2022-08-20T03:13:05.167Z,21.98
2022-08-20T03:15:33.934Z,21.94
2022-08-20T03:18:01.233Z,21.85
2022-08-20T03:20:29.070Z,21.87
2022-08-20T03:22:56.829Z,21.93
2022-08-20T03:25:24.186Z,22.00
2022-08-20T03:27:55.022Z,22.04
2022-08-20T03:30:24.244Z,22.04
2022-08-20T03:32:51.634Z,21.92
2022-08-20T03:35:21.244Z,21.80
2022-08-20T03:37:48.866Z,21.77
2022-08-20T03:40:38.719Z,21.85
2022-08-20T03:43:08.861Z,21.93
2022-08-20T03:45:38.594Z,21.93
2022-08-20T03:48:07.823Z,21.87
2022-08-20T03:50:35.370Z,21.92
2022-08-20T03:53:02.615Z,21.89
2022-08-20T03:55:32.179Z,21.82
2022-08-20T03:58:03.825Z,21.92
2022-08-20T04:03:28.874Z,21.93
2022-08-20T04:05:56.009Z,22.00
2022-08-20T04:08:26.855Z,21.86
2022-08-20T04:10:57.628Z,21.80
2022-08-20T04:13:25.987Z,21.87
2022-08-20T04:15:55.564Z,22.06
2022-08-20T04:18:25.794Z,22.11
2022-08-20T04:20:53.883Z,22.24
2022-08-20T04:23:22.287Z,22.20
2022-08-20T04:25:49.805Z,22.20
2022-08-20T04:28:30.034Z,22.24
2022-08-20T04:30:59.890Z,22.31
2022-08-20T04:33:33.927Z,22.48
2022-08-20T04:36:06.078Z,22.49
2022-08-20T04:38:50.428Z,22.43
2022-08-20T04:41:23.252Z,22.63
2022-08-20T04:43:56.137Z,22.55
2022-08-20T04:46:28.504Z,22.54
2022-08-20T04:48:56.688Z,22.62
2022-08-20T04:51:24.493Z,22.59
2022-08-20T04:56:45.529Z,22.51
2022-08-20T04:59:12.605Z,22.41
2022-08-20T05:01:39.788Z,22.51
2022-08-20T05:04:06.974Z,22.48
2022-08-20T05:06:38.605Z,22.41
2022-08-20T05:09:05.824Z,22.41
2022-08-20T05:11:36.754Z,22.56
2022-08-20T05:14:08.585Z,22.40
2022-08-20T05:16:38.434Z,22.34
2022-08-20T05:19:09.096Z,22.31
2022-08-20T05:21:37.845Z,22.30
2022-08-20T05:28:32.868Z,22.52
2022-08-20T05:31:07.196Z,22.48
2022-08-20T05:33:34.302Z,22.18
2022-08-20T05:36:02.091Z,22.07
2022-08-20T05:38:29.319Z,21.97
2022-08-20T05:40:56.577Z,21.98
2022-08-20T05:43:24.192Z,22.04
2022-08-20T05:45:56.070Z,21.90
2022-08-20T05:48:25.461Z,21.98
2022-08-20T05:50:54.483Z,22.04
2022-08-20T05:53:23.338Z,21.85
2022-08-20T05:55:50.685Z,21.94
2022-08-20T05:58:26.266Z,22.11
2022-08-20T06:00:54.846Z,22.20
2022-08-20T06:03:58.136Z,22.25
2022-08-20T06:06:45.071Z,22.22
2022-08-20T06:09:12.749Z,22.34
2022-08-20T06:11:39.872Z,22.41
2022-08-20T06:14:07.068Z,22.45
2022-08-20T06:16:34.329Z,22.47
2022-08-20T06:19:11.342Z,22.48
2022-08-20T06:21:40.411Z,22.41
2022-08-20T06:24:08.405Z,22.43
2022-08-20T06:26:36.358Z,22.31
2022-08-20T06:29:06.881Z,22.27
2022-08-20T06:31:35.104Z,22.24
2022-08-20T06:34:02.212Z,22.34
2022-08-20T06:36:29.317Z,22.33
2022-08-20T06:38:58.322Z,22.31
2022-08-20T06:41:35.992Z,22.35
2022-08-20T06:44:07.522Z,22.28
2022-08-20T06:46:36.191Z,22.16
2022-08-20T06:49:05.961Z,22.28
2022-08-20T06:51:34.368Z,22.49
2022-08-20T06:54:01.482Z,22.38
2022-08-20T06:56:28.601Z,22.21
2022-08-20T06:58:55.770Z,22.25
2022-08-20T07:01:23.056Z,22.16
2022-08-20T07:03:54.125Z,22.27
2022-08-20T07:06:25.818Z,22.16
2022-08-20T07:08:55.250Z,22.06
2022-08-20T07:11:27.355Z,21.94
2022-08-20T07:13:58.776Z,21.83
2022-08-20T07:16:27.243Z,21.82
2022-08-20T07:18:54.508Z,21.56
2022-08-20T07:21:21.626Z,21.69
2022-08-20T07:23:49.441Z,21.72
2022-08-20T07:26:17.327Z,21.80
2022-08-20T07:28:44.545Z,21.85
2022-08-20T07:31:31.314Z,21.83
2022-08-20T07:33:59.799Z,21.79
2022-08-20T07:36:27.346Z,21.70
2022-08-20T07:38:54.682Z,21.67
2022-08-20T07:41:24.110Z,21.73
2022-08-20T07:43:51.300Z,21.85
2022-08-20T07:46:21.582Z,21.94
2022-08-20T07:48:50.644Z,21.93
2022-08-20T07:51:19.986Z,22.11
2022-08-20T07:53:48.694Z,22.21
2022-08-20T07:56:21.308Z,22.63
2022-08-20T07:58:52.420Z,23.40
2022-08-20T08:01:22.471Z,24.63
2022-08-20T08:03:50.706Z,25.76
2022-08-20T08:06:29.741Z,25.59
2022-08-20T08:09:02.246Z,25.32
2022-08-20T08:11:29.854Z,24.91
2022-08-20T08:13:58.585Z,24.74
2022-08-20T08:16:25.802Z,24.75
2022-08-20T08:18:56.935Z,24.77
2022-08-20T08:21:25.218Z,24.26
2022-08-20T08:23:53.442Z,24.27
2022-08-20T08:26:22.415Z,24.19
2022-08-20T08:28:49.522Z,24.08
2022-08-20T08:31:16.758Z,24.01
2022-08-20T08:33:43.934Z,23.90
2022-08-20T08:36:13.616Z,23.53
2022-08-20T08:38:43.648Z,23.64
2022-08-20T08:41:13.867Z,23.48
2022-08-20T08:43:46.680Z,23.61
2022-08-20T08:46:18.208Z,23.34
2022-08-20T08:48:47.805Z,23.20
2022-08-20T08:51:24.246Z,23.28
2022-08-20T08:53:54.783Z,22.95
2022-08-20T08:56:28.773Z,23.06
2022-08-20T08:59:00.707Z,22.96
2022-08-20T09:01:55.233Z,23.19
2022-08-20T09:04:21.765Z,22.96
2022-08-20T09:06:53.464Z,22.98
2022-08-20T09:09:31.443Z,23.20
2022-08-20T09:12:20.429Z,22.98
2022-08-20T09:14:48.936Z,23.11
2022-08-20T09:17:17.278Z,22.83
2022-08-20T09:19:45.768Z,22.88
2022-08-20T09:22:15.890Z,22.93
2022-08-20T09:24:44.137Z,23.06
2022-08-20T09:27:12.075Z,23.20
2022-08-20T09:29:39.697Z,23.03
2022-08-20T09:32:11.148Z,23.14
2022-08-20T09:34:44.856Z,23.43
2022-08-20T09:37:12.670Z,23.40
2022-08-20T09:39:40.517Z,23.44
2022-08-20T09:42:14.433Z,23.47
2022-08-20T09:44:41.697Z,23.59
2022-08-20T09:47:10.289Z,23.69
2022-08-20T09:49:38.315Z,23.71
2022-08-20T09:52:08.256Z,23.96
2022-08-20T09:54:36.715Z,23.85
2022-08-20T09:57:06.665Z,23.94
2022-08-20T09:59:35.353Z,23.94
2022-08-20T10:02:03.485Z,23.96
2022-08-20T10:04:32.587Z,23.82
2022-08-20T10:06:59.672Z,23.88
2022-08-20T10:09:26.885Z,23.86
2022-08-20T10:11:54.017Z,23.78
2022-08-20T10:14:21.118Z,23.71
2022-08-20T10:16:59.980Z,23.67
2022-08-20T10:19:30.192Z,23.78
2022-08-20T10:21:58.448Z,23.82
2022-08-20T10:24:26.078Z,23.74
2022-08-20T10:28:02.508Z,23.74
2022-08-20T10:30:54.931Z,24.01
2022-08-20T10:33:22.068Z,23.94
2022-08-20T10:35:49.282Z,23.90
2022-08-20T10:38:21.488Z,23.95
2022-08-20T10:40:52.209Z,24.30
2022-08-20T10:43:19.872Z,24.44
2022-08-20T10:45:47.068Z,24.49
2022-08-20T10:48:17.210Z,24.56
2022-08-20T10:51:12.808Z,24.57
2022-08-20T10:53:40.816Z,24.77
2022-08-20T10:56:07.929Z,24.50
2022-08-20T10:58:39.673Z,24.56
2022-08-20T11:01:08.982Z,24.54
2022-08-20T11:03:36.223Z,24.56
2022-08-20T11:06:03.790Z,24.25
2022-08-20T11:08:34.494Z,24.27
2022-08-20T11:11:04.725Z,24.40
2022-08-20T11:13:33.047Z,24.36
2022-08-20T11:16:01.278Z,24.34
2022-08-20T11:18:29.405Z,24.20
2022-08-20T11:20:57.320Z,24.40
2022-08-20T11:23:24.739Z,24.39
2022-08-20T11:25:52.061Z,24.40
2022-08-20T11:28:31.780Z,24.63
2022-08-20T11:31:00.528Z,24.70
2022-08-20T11:33:27.626Z,24.68
2022-08-20T11:35:55.621Z,24.56
2022-08-20T11:38:23.725Z,24.64
2022-08-20T11:40:50.930Z,24.99
2022-08-20T11:43:18.542Z,24.96
2022-08-20T11:45:52.866Z,25.08
2022-08-20T11:48:20.553Z,25.05
2022-08-20T11:50:48.767Z,24.92
2022-08-20T11:53:16.222Z,25.33
2022-08-20T11:55:44.096Z,25.57
2022-08-20T11:58:11.702Z,25.32
2022-08-20T12:00:39.188Z,25.47
2022-08-20T12:03:09.130Z,25.22
2022-08-20T12:05:43.420Z,25.25
2022-08-20T12:08:26.442Z,25.51
2022-08-20T12:10:57.192Z,25.51
2022-08-20T12:13:30.492Z,25.39
2022-08-20T12:15:59.363Z,25.80
2022-08-20T12:18:27.089Z,25.73
2022-08-20T12:20:54.807Z,25.93
2022-08-20T12:23:21.956Z,26.07
2022-08-20T12:25:49.970Z,26.07
2022-08-20T12:28:17.076Z,26.00
2022-08-20T12:30:50.214Z,25.97
2022-08-20T12:33:17.303Z,25.97
2022-08-20T12:35:44.506Z,26.18
2022-08-20T12:38:11.622Z,26.04
2022-08-20T12:40:39.346Z,26.18
2022-08-20T12:43:06.963Z,26.45
2022-08-20T12:45:34.801Z,26.13
2022-08-20T12:48:10.587Z,26.31
2022-08-20T12:50:41.032Z,26.36
2022-08-20T12:53:08.777Z,26.36
2022-08-20T12:55:36.036Z,26.00
2022-08-20T12:58:05.074Z,26.08
2022-08-20T13:00:38.027Z,26.05
2022-08-20T13:03:07.195Z,25.93
2022-08-20T13:05:35.693Z,25.60
2022-08-20T13:08:07.964Z,25.84
2022-08-20T13:10:38.278Z,25.91
2022-08-20T13:13:05.386Z,25.91
2022-08-20T13:15:33.198Z,25.94
2022-08-20T13:18:02.516Z,26.17
2022-08-20T13:20:34.562Z,26.28
2022-08-20T13:23:04.317Z,26.46
2022-08-20T13:25:32.443Z,26.26
2022-08-20T13:28:01.377Z,26.41
2022-08-20T13:30:29.419Z,26.17
2022-08-20T13:33:00.649Z,26.32
2022-08-20T13:35:27.915Z,26.45
2022-08-20T13:37:55.931Z,26.35
2022-08-20T13:40:23.231Z,26.31
2022-08-20T13:42:50.456Z,26.42
2022-08-20T13:45:17.768Z,26.45
2022-08-20T13:47:44.984Z,26.39
2022-08-20T13:50:15.327Z,26.31
2022-08-20T13:52:43.553Z,26.31
2022-08-20T13:55:13.471Z,26.42
2022-08-20T13:57:43.149Z,26.31
2022-08-20T14:00:14.541Z,26.52
2022-08-20T14:02:42.546Z,26.36
2022-08-20T14:05:11.206Z,26.35
2022-08-20T14:07:42.625Z,26.36
2022-08-20T14:10:12.883Z,26.25
2022-08-20T14:12:40.027Z,26.26
2022-08-20T14:15:11.832Z,26.41
2022-08-20T14:17:42.823Z,26.17
2022-08-20T14:20:16.007Z,26.45
2022-08-20T14:22:45.144Z,26.62
2022-08-20T14:25:14.613Z,26.56
2022-08-20T14:27:42.947Z,26.55
2022-08-20T14:30:16.728Z,26.51
2022-08-20T14:32:44.272Z,26.36
2022-08-20T14:35:11.849Z,26.39
2022-08-20T14:37:42.860Z,26.51
2022-08-20T14:40:14.064Z,26.38
2022-08-20T14:42:43.263Z,26.43
2022-08-20T14:45:14.320Z,26.32
2022-08-20T14:47:51.886Z,26.29
2022-08-20T14:50:33.603Z,26.34
2022-08-20T14:53:01.271Z,26.38
2022-08-20T14:55:32.211Z,26.38
2022-08-20T14:57:59.529Z,26.21
2022-08-20T15:00:30.539Z,26.24
2022-08-20T15:02:58.292Z,25.97
2022-08-20T15:05:26.145Z,26.08
2022-08-20T15:08:23.194Z,26.00
2022-08-20T15:10:55.997Z,25.94
2022-08-20T15:13:23.061Z,26.00
2022-08-20T15:15:50.246Z,25.98
2022-08-20T15:18:18.510Z,25.73
2022-08-20T15:20:45.703Z,25.70
2022-08-20T15:23:12.899Z,25.73
2022-08-20T15:25:40.041Z,25.73
2022-08-20T15:28:09.593Z,25.74
2022-08-20T15:30:39.900Z,25.60
2022-08-20T15:33:07.723Z,25.66
2022-08-20T15:35:35.464Z,25.69
2022-08-20T15:38:02.646Z,25.77
2022-08-20T15:40:32.360Z,25.86
2022-08-20T15:43:01.746Z,25.81
2022-08-20T15:45:30.089Z,25.78
2022-08-20T15:48:09.314Z,25.97
2022-08-20T15:51:03.408Z,25.84
2022-08-20T15:53:42.470Z,25.94
2022-08-20T15:56:16.529Z,25.90
2022-08-20T15:58:58.959Z,25.88
2022-08-20T16:01:50.462Z,25.95
2022-08-20T16:04:51.250Z,25.97
2022-08-20T16:07:39.131Z,25.81
2022-08-20T16:10:17.136Z,25.91
2022-08-20T16:12:49.745Z,25.78
2022-08-20T16:15:35.671Z,25.83
2022-08-20T16:18:25.984Z,25.76
2022-08-20T16:21:00.597Z,25.91
2022-08-20T16:23:36.917Z,25.88
2022-08-20T16:26:15.935Z,25.76
2022-08-20T16:28:43.052Z,25.76
2022-08-20T16:31:14.486Z,25.88
2022-08-20T16:33:48.357Z,25.83
2022-08-20T16:36:28.941Z,25.66
2022-08-20T16:39:04.713Z,25.70
2022-08-20T16:41:37.993Z,25.77
2022-08-20T16:44:35.668Z,25.88
2022-08-20T16:47:21.228Z,25.86
2022-08-20T16:50:12.755Z,25.71
2022-08-20T16:52:42.494Z,25.63
2022-08-20T16:55:10.298Z,25.62
2022-08-20T16:57:37.669Z,25.63
2022-08-20T17:00:16.373Z,25.57
2022-08-20T17:03:05.705Z,25.51
2022-08-20T17:05:38.928Z,25.40
2022-08-20T17:08:08.237Z,25.33
2022-08-20T17:10:54.594Z,25.20
2022-08-20T17:13:28.107Z,25.16
2022-08-20T17:16:02.414Z,25.09
2022-08-20T17:18:38.631Z,25.15
2022-08-20T17:21:14.801Z,25.04
2022-08-20T17:23:56.313Z,25.02
2022-08-20T17:26:35.332Z,24.91
2022-08-20T17:29:23.913Z,24.78
2022-08-20T17:32:01.391Z,24.65
2022-08-20T17:34:32.798Z,24.63
2022-08-20T17:37:19.870Z,24.63
2022-08-20T17:39:51.924Z,24.64
2022-08-20T17:42:25.603Z,24.52
2022-08-20T17:45:21.564Z,24.60
2022-08-20T17:47:49.059Z,24.52
2022-08-20T17:50:20.133Z,24.22
2022-08-20T17:52:58.837Z,24.16
2022-08-20T17:55:26.477Z,24.32
2022-08-20T17:57:57.809Z,24.33
2022-08-20T18:00:27.972Z,24.30
2022-08-20T18:03:09.112Z,24.23
2022-08-20T18:05:38.767Z,24.30
2022-08-20T18:08:17.176Z,24.12
2022-08-20T18:10:59.836Z,24.32
2022-08-20T18:14:08.758Z,24.15
2022-08-20T18:17:10.665Z,24.02
2022-08-20T18:19:56.358Z,23.98
2022-08-20T18:22:28.824Z,23.95
2022-08-20T18:25:11.120Z,24.02
2022-08-20T18:27:46.361Z,24.08
2022-08-20T18:30:21.032Z,24.19
2022-08-20T18:32:59.899Z,24.27
2022-08-20T18:35:45.761Z,24.13
2022-08-20T18:38:28.269Z,24.09
2022-08-20T18:41:26.757Z,23.86
2022-08-20T18:44:11.121Z,23.96
2022-08-20T18:46:53.804Z,23.88
2022-08-20T18:49:30.425Z,23.81
2022-08-20T18:52:07.734Z,23.85
2022-08-20T18:54:35.421Z,23.72
2022-08-20T18:57:40.630Z,23.64
2022-08-20T19:00:16.646Z,23.65
2022-08-20T19:02:58.932Z,23.47
2022-08-20T19:05:36.884Z,23.54
2022-08-20T19:08:05.848Z,23.55
2022-08-20T19:10:54.027Z,23.36
2022-08-20T19:13:46.233Z,23.36
2022-08-20T19:16:22.016Z,23.26
2022-08-20T19:18:54.890Z,23.04
2022-08-20T19:21:26.368Z,22.89
2022-08-20T19:23:57.840Z,22.91
2022-08-20T19:26:28.795Z,22.96
2022-08-20T19:29:02.350Z,23.03
2022-08-20T19:31:34.661Z,23.00
2022-08-20T19:34:19.924Z,22.95
2022-08-20T19:37:09.114Z,22.91
2022-08-20T19:39:50.917Z,22.98
2022-08-20T19:42:32.972Z,22.92
2022-08-20T19:45:02.955Z,22.98
2022-08-20T19:47:33.698Z,22.89
2022-08-20T19:50:26.390Z,22.77
2022-08-20T19:53:14.552Z,22.81
2022-08-20T19:55:42.252Z,22.99
2022-08-20T19:58:16.815Z,22.88
2022-08-20T20:00:55.451Z,22.83
2022-08-20T20:03:26.009Z,22.79
2022-08-20T20:06:16.573Z,22.69
2022-08-20T20:08:58.535Z,22.61
2022-08-20T20:11:45.082Z,22.73
2022-08-20T20:14:15.013Z,22.65
2022-08-20T20:16:42.591Z,22.85
2022-08-20T20:19:28.460Z,22.61
2022-08-20T20:22:19.089Z,22.48
2022-08-20T20:24:57.552Z,22.34
2022-08-20T20:27:26.838Z,22.33
2022-08-20T20:30:03.834Z,22.35
2022-08-20T20:32:33.821Z,22.37
2022-08-20T20:35:04.786Z,22.24
2022-08-20T20:37:49.656Z,22.33
2022-08-20T20:40:30.966Z,22.20
2022-08-20T20:43:05.228Z,22.21
2022-08-20T20:45:35.805Z,22.28
2022-08-20T20:48:14.510Z,22.18
2022-08-20T20:50:42.337Z,22.07
2022-08-20T20:53:09.755Z,22.07
2022-08-20T20:55:38.723Z,22.08
2022-08-20T20:58:06.014Z,22.06
2022-08-20T21:00:34.507Z,22.00
2022-08-20T21:03:04.387Z,21.98
2022-08-20T21:05:32.469Z,22.31
2022-08-20T21:08:06.065Z,22.44
2022-08-20T21:10:37.083Z,22.61
2022-08-20T21:13:08.070Z,22.73
2022-08-20T21:15:37.806Z,22.68
2022-08-20T21:18:06.824Z,22.66
2022-08-20T21:20:34.236Z,22.69
2022-08-20T21:23:01.487Z,22.63
2022-08-20T21:25:31.402Z,22.44
2022-08-20T21:27:58.709Z,22.30
2022-08-20T21:30:26.601Z,22.24
2022-08-20T21:32:54.078Z,22.24
2022-08-20T21:35:21.433Z,22.25
2022-08-20T21:37:48.701Z,22.20
2022-08-20T21:40:18.091Z,22.14
2022-08-20T21:42:46.432Z,22.10
2022-08-20T21:45:18.698Z,22.18
2022-08-20T21:47:49.120Z,22.17
2022-08-20T21:50:18.631Z,22.17
2022-08-20T21:52:52.491Z,22.21
2022-08-20T21:55:29.895Z,22.25
2022-08-20T21:57:58.608Z,22.28
2022-08-20T22:00:57.874Z,22.25
2022-08-20T22:03:32.382Z,22.11
2022-08-20T22:06:00.928Z,22.07
2022-08-20T22:08:28.482Z,22.06
2022-08-20T22:10:57.759Z,22.21
2022-08-20T22:13:31.280Z,22.20
2022-08-20T22:16:01.071Z,22.13
2022-08-20T22:18:28.321Z,22.00
2022-08-20T22:20:55.841Z,21.97
2022-08-20T22:23:23.537Z,22.04
2022-08-20T22:25:51.317Z,22.07
2022-08-20T22:28:19.172Z,22.00
2022-08-20T22:30:46.662Z,22.00
2022-08-20T22:33:19.892Z,21.94
2022-08-20T22:35:49.414Z,21.92
2022-08-20T22:38:17.187Z,21.94
2022-08-20T22:40:47.753Z,21.77
2022-08-20T22:43:15.773Z,21.63
2022-08-20T22:45:45.634Z,21.49
2022-08-20T22:48:16.025Z,21.49
2022-08-20T22:50:43.354Z,21.37
2022-08-20T22:53:12.146Z,21.50
2022-08-20T22:55:39.358Z,21.58
2022-08-20T22:58:07.196Z,21.48
2022-08-20T23:00:35.046Z,21.42
2022-08-20T23:03:04.052Z,21.41
2022-08-20T23:05:33.579Z,21.56
2022-08-20T23:08:01.225Z,21.66
2022-08-20T23:10:31.184Z,21.43
2022-08-20T23:15:50.259Z,21.46
2022-08-20T23:18:19.461Z,21.52
2022-08-20T23:20:50.738Z,21.45
2022-08-20T23:23:18.741Z,21.45
2022-08-20T23:25:46.428Z,21.41
2022-08-20T23:28:13.887Z,21.55
2022-08-20T23:30:40.991Z,21.48
2022-08-20T23:33:08.427Z,21.42
2022-08-20T23:35:38.608Z,21.37
2022-08-20T23:38:06.495Z,21.25
2022-08-20T23:40:34.626Z,21.34
2022-08-20T23:43:01.866Z,21.28
2022-08-20T23:45:29.992Z,21.25
2022-08-20T23:47:57.360Z,21.35
2022-08-20T23:50:27.523Z,21.45
2022-08-20T23:52:56.102Z,21.34
2022-08-20T23:55:23.668Z,21.20
2022-08-20T23:57:51.159Z,21.20
